Time;durP1;ratioP1;P1;durP2;ratioP2;P2;SDS_P1;SDS_P2;PMS_P1;PMS_P2;Temp;Humidity;BMP_temperature;BMP_pressure;BME280_temperature;BME280_humidity;BME280_pressure;Samples;Min_cycle;Max_cycle;Signal;HPM_P1;HPM_P2
2021/11/29 00:00:36;;;;;;;13.15;8.00;;;179.90;2252.80;;;;;;4827498;29;20026;-69
2021/11/29 00:03:09;;;;;;;10.05;6.95;;;179.90;2252.80;;;;;;4826716;29;20101;-69
2021/11/29 00:05:36;;;;;;;10.48;7.20;;;179.90;2252.80;;;;;;4826823;29;20060;-64
2021/11/29 00:08:02;;;;;;;10.90;7.82;;;179.90;2252.80;;;;;;4826594;29;20035;-69
2021/11/29 00:10:29;;;;;;;12.70;8.52;;;179.90;2252.80;;;;;;4826842;29;20405;-69
2021/11/29 00:12:55;;;;;;;11.70;8.18;;;179.90;2252.80;;;;;;4826492;29;20026;-63
2021/11/29 00:15:22;;;;;;;12.30;7.75;;;179.90;2252.80;;;;;;4826453;29;20034;-63
2021/11/29 00:17:48;;;;;;;9.75;7.68;;;179.90;2252.80;;;;;;4826373;29;20433;-69
2021/11/29 00:20:16;;;;;;;9.48;7.15;;;179.90;2252.80;;;;;;4826541;29;20734;-68
2021/11/29 00:22:42;;;;;;;11.93;8.23;;;179.80;2252.80;;;;;;4826410;29;20034;-63
2021/11/29 00:25:08;;;;;;;10.02;8.23;;;179.80;2252.80;;;;;;4826344;29;20026;-63
2021/11/29 00:27:36;;;;;;;10.52;7.85;;;179.80;2252.80;;;;;;4826335;29;20037;-64
2021/11/29 00:30:04;;;;;;;11.32;7.75;;;179.80;2252.80;;;;;;4826168;29;20060;-66
2021/11/29 00:32:30;;;;;;;11.70;8.27;;;179.70;2252.80;;;;;;4826145;29;20031;-69
2021/11/29 00:34:55;;;;;;;10.45;7.63;;;179.70;2252.80;;;;;;4809872;29;20052;-63
2021/11/29 00:37:21;;;;;;;8.57;6.07;;;179.80;2252.80;;;;;;4826070;29;20074;-69
2021/11/29 00:39:47;;;;;;;8.85;6.25;;;179.70;2252.80;;;;;;4826075;29;20053;-69
2021/11/29 00:42:13;;;;;;;7.38;5.60;;;179.70;2252.80;;;;;;4826620;29;20034;-63
2021/11/29 00:44:40;;;;;;;11.55;6.32;;;179.70;2252.80;;;;;;4826006;29;20461;-64
2021/11/29 00:47:06;;;;;;;9.27;6.55;;;179.70;2252.80;;;;;;4825949;29;20083;-63
2021/11/29 00:49:32;;;;;;;8.52;5.47;;;179.70;2252.80;;;;;;4825723;29;20054;-69
2021/11/29 00:51:57;;;;;;;8.30;5.97;;;179.70;2252.80;;;;;;4826156;29;20066;-68
2021/11/29 00:54:23;;;;;;;6.20;4.90;;;179.70;2252.80;;;;;;4825923;29;20034;-64
2021/11/29 00:56:49;;;;;;;6.10;4.65;;;179.70;2252.80;;;;;;4825785;29;20117;-68
2021/11/29 00:59:15;;;;;;;6.22;4.38;;;179.80;2252.80;;;;;;4826078;29;20091;-63
2021/11/29 01:01:41;;;;;;;7.43;4.05;;;179.70;2252.80;;;;;;4825800;29;20400;-68
2021/11/29 01:04:07;;;;;;;4.75;4.00;;;179.70;2252.80;;;;;;4825729;29;20103;-64
2021/11/29 01:06:33;;;;;;;10.35;4.20;;;179.70;2252.80;;;;;;4825993;29;20047;-64
2021/11/29 01:08:59;;;;;;;5.60;4.40;;;179.60;2252.80;;;;;;4825638;29;20059;-67
2021/11/29 01:11:25;;;;;;;7.97;5.30;;;179.60;2252.80;;;;;;4825696;29;20031;-68
2021/11/29 01:13:50;;;;;;;6.47;4.80;;;179.60;2252.80;;;;;;4825607;29;20460;-69
2021/11/29 01:16:16;;;;;;;6.38;4.40;;;179.60;2252.80;;;;;;4825951;29;20039;-63
2021/11/29 01:18:42;;;;;;;5.60;3.83;;;179.60;2252.80;;;;;;4825550;29;20027;-64
2021/11/29 01:21:08;;;;;;;6.60;3.97;;;179.50;2252.80;;;;;;4825468;29;20430;-63
2021/11/29 01:23:34;;;;;;;5.82;3.53;;;179.50;2252.80;;;;;;4825375;29;20113;-64
2021/11/29 01:26:00;;;;;;;8.18;4.50;;;179.50;2252.80;;;;;;4825439;29;20060;-64
2021/11/29 01:28:26;;;;;;;7.20;4.55;;;179.50;2252.80;;;;;;4825339;29;20083;-69
2021/11/29 01:30:52;;;;;;;6.65;4.05;;;179.50;2252.80;;;;;;4825311;29;20408;-67
2021/11/29 01:33:18;;;;;;;8.95;4.82;;;179.40;2252.80;;;;;;4825265;29;20061;-68
2021/11/29 01:35:44;;;;;;;7.15;4.10;;;179.50;2252.80;;;;;;4825201;29;20034;-66
2021/11/29 01:38:10;;;;;;;8.65;4.75;;;179.50;2252.80;;;;;;4825456;29;20043;-69
2021/11/29 01:40:36;;;;;;;6.18;4.55;;;179.50;2252.80;;;;;;4825081;29;20388;-68
2021/11/29 01:43:08;;;;;;;6.70;4.72;;;179.50;2252.80;;;;;;4825179;29;20034;-68
2021/11/29 01:45:44;;;;;;;6.40;4.30;;;179.50;2252.80;;;;;;4825072;29;20050;-64
2021/11/29 01:48:11;;;;;;;8.05;5.60;;;179.50;2252.80;;;;;;4823276;29;20068;-69
2021/11/29 01:50:40;;;;;;;7.75;5.03;;;179.50;2252.80;;;;;;4824767;29;20055;-69
2021/11/29 01:53:07;;;;;;;7.75;5.20;;;179.50;2252.80;;;;;;4824930;29;20061;-68
2021/11/29 01:55:35;;;;;;;11.25;6.65;;;179.50;2252.80;;;;;;4825313;29;20460;-63
2021/11/29 01:58:01;;;;;;;7.80;5.63;;;179.50;2252.80;;;;;;4824833;29;20034;-69
2021/11/29 02:00:34;;;;;;;5.57;3.90;;;179.50;2252.80;;;;;;4824453;29;20047;-69
2021/11/29 02:03:00;;;;;;;6.05;4.28;;;179.50;2252.80;;;;;;4825250;29;20070;-68
2021/11/29 02:05:26;;;;;;;7.45;4.53;;;179.50;2252.80;;;;;;4824857;29;20031;-68
2021/11/29 02:07:52;;;;;;;5.35;3.80;;;179.50;2252.80;;;;;;4824756;29;20038;-68
2021/11/29 02:10:20;;;;;;;5.07;3.42;;;179.50;2252.80;;;;;;4808307;29;20507;-69
2021/11/29 02:12:46;;;;;;;6.20;3.40;;;179.50;2252.80;;;;;;4824746;29;20031;-63
2021/11/29 02:15:14;;;;;;;6.22;4.05;;;179.50;2252.80;;;;;;4824818;29;20115;-63
2021/11/29 02:17:41;;;;;;;5.25;3.92;;;179.50;2252.80;;;;;;4824712;29;20046;-63
2021/11/29 02:20:08;;;;;;;5.38;3.50;;;179.50;2252.80;;;;;;4824738;29;20499;-63
2021/11/29 02:22:34;;;;;;;6.38;3.70;;;179.50;2252.80;;;;;;4824670;29;20038;-64
2021/11/29 02:25:01;;;;;;;4.72;3.58;;;179.50;2252.80;;;;;;4824967;29;20035;-68
2021/11/29 02:27:27;;;;;;;5.53;4.05;;;179.50;2252.80;;;;;;4824753;29;20038;-68
2021/11/29 02:29:55;;;;;;;5.63;4.00;;;179.60;2252.80;;;;;;4824794;29;20045;-64
2021/11/29 02:32:21;;;;;;;5.72;4.15;;;179.50;2252.80;;;;;;4824378;29;20033;-69
2021/11/29 02:34:47;;;;;;;8.38;5.03;;;179.50;2252.80;;;;;;4824504;29;20034;-68
2021/11/29 02:37:14;;;;;;;7.72;4.50;;;179.50;2252.80;;;;;;4824423;29;20050;-64
2021/11/29 02:39:43;;;;;;;6.20;4.88;;;179.50;2252.80;;;;;;4825003;29;20103;-69
2021/11/29 02:42:11;;;;;;;7.25;5.40;;;179.50;2252.80;;;;;;4824403;29;20030;-69
2021/11/29 02:44:38;;;;;;;8.68;5.53;;;179.50;2252.80;;;;;;4824633;29;20485;-68
2021/11/29 02:47:05;;;;;;;11.70;6.97;;;179.60;2252.80;;;;;;4824350;29;20035;-66
2021/11/29 02:49:31;;;;;;;8.70;6.15;;;179.70;2252.80;;;;;;4824196;29;20046;-69
2021/11/29 02:52:00;;;;;;;11.40;7.13;;;179.60;2252.80;;;;;;4824550;29;20027;-68
2021/11/29 02:54:30;;;;;;;11.18;7.20;;;179.60;2252.80;;;;;;4824276;29;20120;-67
2021/11/29 02:56:58;;;;;;;10.38;7.78;;;179.60;2252.80;;;;;;4824492;29;20042;-68
2021/11/29 02:59:30;;;;;;;9.05;6.85;;;179.70;2252.80;;;;;;4824251;29;20031;-64
2021/11/29 03:01:58;;;;;;;11.65;8.10;;;179.70;2252.80;;;;;;4824220;29;20035;-68
2021/11/29 03:04:26;;;;;;;12.13;9.00;;;179.90;2252.80;;;;;;4824120;29;20442;-64
2021/11/29 03:06:53;;;;;;;12.05;8.68;;;179.90;2252.80;;;;;;4824412;29;20030;-68
2021/11/29 03:09:19;;;;;;;13.25;9.23;;;179.90;2252.80;;;;;;4824057;29;20033;-69
2021/11/29 03:11:46;;;;;;;14.00;9.75;;;179.80;2252.80;;;;;;4825926;29;20468;-64
2021/11/29 03:14:13;;;;;;;13.05;9.73;;;179.80;2252.80;;;;;;4827433;29;20101;-67
2021/11/29 03:16:39;;;;;;;13.90;10.45;;;179.80;2252.80;;;;;;4827550;29;20395;-69
2021/11/29 03:19:05;;;;;;;14.55;11.02;;;179.80;2252.80;;;;;;4827349;29;20083;-64
2021/11/29 03:21:32;;;;;;;16.50;12.38;;;179.80;2252.80;;;;;;4811327;29;20388;-69
2021/11/29 03:24:00;;;;;;;13.82;10.80;;;179.80;2252.80;;;;;;4827237;29;20034;-69
2021/11/29 03:26:28;;;;;;;13.00;10.85;;;179.90;2252.80;;;;;;4827301;29;20035;-68
2021/11/29 03:28:58;;;;;;;17.60;12.43;;;179.90;2252.80;;;;;;4827737;29;20086;-64
2021/11/29 03:31:26;;;;;;;16.85;12.90;;;179.80;2252.80;;;;;;4827139;29;20026;-67
2021/11/29 03:33:56;;;;;;;19.88;12.48;;;179.80;2252.80;;;;;;4827112;29;20034;-67
2021/11/29 03:36:23;;;;;;;16.52;12.40;;;179.80;2252.80;;;;;;4827006;29;20034;-67
2021/11/29 03:38:49;;;;;;;29.27;13.02;;;179.80;2252.80;;;;;;4810924;29;20035;-69
2021/11/29 03:41:16;;;;;;;17.75;11.38;;;179.80;2252.80;;;;;;4827301;29;20030;-64
2021/11/29 03:43:41;;;;;;;14.98;10.68;;;179.70;2252.80;;;;;;4826962;29;20492;-69
2021/11/29 03:46:07;;;;;;;15.38;9.82;;;179.70;2252.80;;;;;;4826961;29;20035;-69
2021/11/29 03:48:34;;;;;;;15.40;10.07;;;179.80;2252.80;;;;;;4826914;29;20110;-69
2021/11/29 03:51:01;;;;;;;12.43;9.00;;;179.80;2252.80;;;;;;4827220;29;20236;-69
2021/11/29 03:53:27;;;;;;;11.75;8.85;;;179.80;2252.80;;;;;;4826840;29;20027;-64
2021/11/29 03:55:53;;;;;;;9.95;8.27;;;179.70;2252.80;;;;;;4826708;29;20053;-64
2021/11/29 03:58:19;;;;;;;19.92;13.95;;;179.80;2252.80;;;;;;4826813;29;20038;-69
2021/11/29 04:00:45;;;;;;;18.27;13.38;;;179.80;2252.80;;;;;;4827007;29;20038;-63
2021/11/29 04:03:11;;;;;;;17.35;13.32;;;179.90;2252.80;;;;;;4826854;29;20056;-69
2021/11/29 04:05:38;;;;;;;16.23;12.80;;;180.00;2252.80;;;;;;4826709;29;20027;-64
2021/11/29 04:08:04;;;;;;;17.33;12.55;;;180.00;2252.80;;;;;;4826606;29;20058;-64
2021/11/29 04:10:30;;;;;;;19.15;13.65;;;180.00;2252.80;;;;;;4826602;29;20037;-64
2021/11/29 04:12:56;;;;;;;17.73;13.10;;;180.00;2252.80;;;;;;4826592;29;20083;-64
2021/11/29 04:15:22;;;;;;;17.52;13.48;;;180.10;2252.80;;;;;;4826638;29;20034;-69
2021/11/29 04:17:49;;;;;;;18.83;13.75;;;179.90;2252.80;;;;;;4826617;29;20489;-64
2021/11/29 04:20:16;;;;;;;16.77;12.88;;;179.90;2252.80;;;;;;4826463;29;20034;-64
2021/11/29 04:22:47;;;;;;;16.50;12.98;;;180.00;2252.80;;;;;;4826091;29;20033;-69
2021/11/29 04:25:19;;;;;;;17.23;13.32;;;180.00;2252.80;;;;;;4826308;29;20033;-64
2021/11/29 04:27:46;;;;;;;17.65;11.68;;;180.10;2252.80;;;;;;4826272;29;20039;-64
2021/11/29 04:30:17;;;;;;;16.25;12.70;;;180.10;2252.80;;;;;;4826207;29;20038;-64
2021/11/29 04:32:48;;;;;;;17.17;12.70;;;180.10;2252.80;;;;;;4826193;29;20034;-64
2021/11/29 04:35:14;;;;;;;16.92;12.45;;;180.10;2252.80;;;;;;4826367;29;20034;-64
2021/11/29 04:37:40;;;;;;;16.13;12.02;;;180.10;2252.80;;;;;;4826059;29;20117;-68
2021/11/29 04:40:07;;;;;;;14.93;12.18;;;180.10;2252.80;;;;;;4826163;29;20130;-64
2021/11/29 04:42:34;;;;;;;15.07;12.00;;;180.10;2252.80;;;;;;4826078;29;20046;-64
2021/11/29 04:45:00;;;;;;;17.02;14.15;;;180.10;2252.80;;;;;;4826069;29;20030;-68
2021/11/29 04:47:26;;;;;;;15.70;12.55;;;180.10;2252.80;;;;;;4826004;29;20132;-64
2021/11/29 04:49:52;;;;;;;13.30;11.35;;;180.10;2252.80;;;;;;4825847;29;20059;-69
2021/11/29 04:52:18;;;;;;;14.13;11.40;;;180.10;2252.80;;;;;;4825938;29;20030;-69
2021/11/29 04:54:45;;;;;;;18.45;13.57;;;180.10;2252.80;;;;;;4826152;29;20030;-64
2021/11/29 04:57:11;;;;;;;18.30;13.98;;;180.10;2252.80;;;;;;4825989;29;20045;-63
2021/11/29 04:59:36;;;;;;;21.33;15.00;;;180.10;2252.80;;;;;;4826028;29;20030;-68
2021/11/29 05:02:03;;;;;;;15.68;13.43;;;180.10;2252.80;;;;;;4825474;29;20079;-64
2021/11/29 05:04:30;;;;;;;20.67;14.05;;;180.10;2252.80;;;;;;4825742;29;20079;-64
2021/11/29 05:06:55;;;;;;;18.52;14.35;;;180.10;2252.80;;;;;;4825502;29;20041;-63
2021/11/29 05:09:21;;;;;;;36.70;23.30;;;180.10;2252.80;;;;;;4825561;29;20030;-63
2021/11/29 05:11:47;;;;;;;27.73;20.52;;;180.10;2252.80;;;;;;4825162;29;20038;-63
2021/11/29 05:14:13;;;;;;;28.10;20.35;;;180.10;2252.80;;;;;;4825661;29;20365;-64
2021/11/29 05:16:41;;;;;;;24.05;19.77;;;180.00;2252.80;;;;;;4825381;29;20489;-65
2021/11/29 05:19:08;;;;;;;19.73;15.63;;;179.90;2252.80;;;;;;4825403;29;20609;-63
2021/11/29 05:21:34;;;;;;;26.05;19.60;;;179.90;2252.80;;;;;;4825269;29;20481;-64
2021/11/29 05:24:01;;;;;;;26.77;21.08;;;179.90;2252.80;;;;;;4825401;29;20038;-63
2021/11/29 05:26:28;;;;;;;33.00;23.58;;;179.80;2252.80;;;;;;4825430;29;20524;-63
2021/11/29 05:28:54;;;;;;;21.45;17.17;;;179.80;2252.80;;;;;;4825370;29;20031;-63
2021/11/29 05:31:21;;;;;;;33.65;22.23;;;179.60;2252.80;;;;;;4808893;29;20113;-64
2021/11/29 05:33:47;;;;;;;22.00;17.00;;;179.60;2252.80;;;;;;4824948;29;20034;-63
2021/11/29 05:36:13;;;;;;;19.23;14.93;;;179.60;2252.80;;;;;;4824829;29;20113;-64
2021/11/29 05:38:39;;;;;;;20.50;15.13;;;179.60;2252.80;;;;;;4824852;29;20536;-64
2021/11/29 05:41:05;;;;;;;26.65;17.73;;;179.60;2252.80;;;;;;4825444;29;20045;-63
2021/11/29 05:43:32;;;;;;;22.08;14.90;;;179.60;2252.80;;;;;;4825233;29;20091;-68
2021/11/29 05:45:59;;;;;;;17.95;14.10;;;179.40;2252.80;;;;;;4825437;29;20034;-66
2021/11/29 05:48:27;;;;;;;24.83;16.25;;;179.40;2252.80;;;;;;4825131;29;20027;-64
2021/11/29 05:50:53;;;;;;;34.05;19.42;;;179.40;2252.80;;;;;;4825012;29;20066;-64
2021/11/29 05:53:19;;;;;;;31.48;18.58;;;179.50;2252.80;;;;;;4825017;29;20061;-68
2021/11/29 05:55:45;;;;;;;18.95;15.07;;;179.50;2252.80;;;;;;4824796;29;20472;-64
2021/11/29 05:58:12;;;;;;;19.55;15.32;;;179.50;2252.80;;;;;;4824853;29;20037;-63
2021/11/29 06:00:37;;;;;;;48.33;26.75;;;179.50;2252.80;;;;;;4808439;29;20033;-70
2021/11/29 06:03:04;;;;;;;49.42;25.50;;;179.40;2252.80;;;;;;4824880;29;20034;-69
2021/11/29 06:05:30;;;;;;;38.53;21.40;;;179.40;2252.80;;;;;;4824755;29;20481;-68
2021/11/29 06:07:56;;;;;;;31.40;18.73;;;179.40;2252.80;;;;;;4819535;29;20068;-68
2021/11/29 06:10:22;;;;;;;24.23;16.83;;;179.30;2252.80;;;;;;4811238;29;20042;-66
2021/11/29 06:12:48;;;;;;;27.27;18.45;;;179.30;2252.80;;;;;;4806502;29;20037;-67
2021/11/29 06:15:15;;;;;;;27.25;19.00;;;179.30;2252.80;;;;;;4806608;29;20027;-66
2021/11/29 06:17:42;;;;;;;28.27;19.33;;;179.30;2252.80;;;;;;4809738;29;20400;-67
2021/11/29 06:20:10;;;;;;;25.67;18.83;;;179.30;2252.80;;;;;;4815229;29;20029;-67
2021/11/29 06:22:36;;;;;;;23.70;18.77;;;179.20;2252.80;;;;;;4815743;29;20022;-67
2021/11/29 06:25:03;;;;;;;23.35;16.08;;;179.20;2252.80;;;;;;4814008;29;20030;-67
2021/11/29 06:27:29;;;;;;;28.08;17.67;;;154.50;2252.80;;;;;;4815037;29;20023;-67
2021/11/29 06:29:55;;;;;;;32.97;21.52;;;154.50;2252.80;;;;;;4815820;29;20049;-67
2021/11/29 06:32:21;;;;;;;27.60;20.60;;;154.50;2252.80;;;;;;4813835;29;20035;-66
2021/11/29 06:34:46;;;;;;;33.13;22.08;;;154.50;2252.80;;;;;;4815316;29;20034;-67
2021/11/29 06:37:13;;;;;;;32.13;23.33;;;154.50;2252.80;;;;;;4815107;29;20047;-69
2021/11/29 06:39:39;;;;;;;29.30;21.42;;;154.40;2252.80;;;;;;4813857;29;20096;-66
2021/11/29 06:42:07;;;;;;;26.58;19.38;;;154.40;2252.80;;;;;;4815357;29;20042;-67
2021/11/29 06:44:33;;;;;;;21.92;16.73;;;154.40;2252.80;;;;;;4815325;29;20106;-68
2021/11/29 06:47:00;;;;;;;21.90;16.20;;;154.30;2252.80;;;;;;4817338;29;20038;-65
2021/11/29 06:49:26;;;;;;;26.00;17.45;;;154.20;2252.80;;;;;;4818628;29;20049;-67
2021/11/29 06:51:52;;;;;;;24.85;18.55;;;154.20;2252.80;;;;;;4818681;29;20027;-66
2021/11/29 06:54:20;;;;;;;37.72;23.75;;;154.20;2252.80;;;;;;4817143;29;20026;-69
2021/11/29 06:56:47;;;;;;;41.92;25.17;;;154.30;2252.80;;;;;;4809523;29;20039;-69
2021/11/29 06:59:13;;;;;;;71.97;45.38;;;154.30;2252.80;;;;;;4809590;29;20437;-66
2021/11/29 07:01:39;;;;;;;43.50;31.08;;;154.30;2252.80;;;;;;4809542;29;20062;-69
2021/11/29 07:04:05;;;;;;;36.38;27.40;;;154.30;2252.80;;;;;;4809806;29;20122;-69
2021/11/29 07:06:31;;;;;;;38.08;27.65;;;154.20;2252.80;;;;;;4817551;29;20026;-67
2021/11/29 07:08:57;;;;;;;61.95;35.40;;;154.30;2252.80;;;;;;4817490;29;20019;-69
2021/11/29 07:11:22;;;;;;;56.20;34.38;;;154.20;2252.80;;;;;;4815890;29;20041;-70
2021/11/29 07:13:48;;;;;;;61.65;35.38;;;154.20;2252.80;;;;;;4816359;29;20110;-70
2021/11/29 07:16:14;;;;;;;33.33;22.27;;;154.20;2252.80;;;;;;4816849;29;20069;-67
2021/11/29 07:18:41;;;;;;;30.77;19.73;;;154.10;2252.80;;;;;;4817953;29;20051;-66
2021/11/29 07:21:09;;;;;;;33.72;21.33;;;154.10;2252.80;;;;;;4813740;29;20033;-65
2021/11/29 07:23:36;;;;;;;32.28;21.42;;;154.20;2252.80;;;;;;4827379;29;20029;-69
2021/11/29 07:26:02;;;;;;;23.80;17.13;;;154.20;2252.80;;;;;;4827322;29;20023;-64
2021/11/29 07:28:28;;;;;;;45.58;25.63;;;154.20;2252.80;;;;;;4827204;29;20022;-64
2021/11/29 07:30:54;;;;;;;55.97;28.10;;;154.20;2252.80;;;;;;4827304;29;20038;-62
2021/11/29 07:33:21;;;;;;;47.85;25.52;;;154.20;2252.80;;;;;;4827473;29;20030;-66
2021/11/29 07:35:46;;;;;;;32.53;22.02;;;154.20;2252.80;;;;;;4827103;29;20107;-68
2021/11/29 07:38:13;;;;;;;22.17;17.48;;;154.20;2252.80;;;;;;4827146;29;20039;-63
2021/11/29 07:40:39;;;;;;;29.80;20.65;;;154.20;2252.80;;;;;;4827019;29;20027;-72
2021/11/29 07:43:08;;;;;;;28.73;19.02;;;154.30;2252.80;;;;;;4827161;29;20037;-65
2021/11/29 07:45:36;;;;;;;30.88;20.60;;;154.30;2252.80;;;;;;4810731;29;20387;-68
2021/11/29 07:48:02;;;;;;;38.80;26.15;;;154.30;2252.80;;;;;;4826966;29;20030;-69
2021/11/29 07:50:28;;;;;;;35.83;24.27;;;154.40;2252.80;;;;;;4826688;29;20500;-70
2021/11/29 07:52:54;;;;;;;38.10;25.77;;;154.40;2252.80;;;;;;4826813;29;20113;-70
2021/11/29 07:55:24;;;;;;;50.13;28.95;;;154.50;2252.80;;;;;;4826804;29;20106;-71
2021/11/29 07:57:50;;;;;;;36.80;24.38;;;154.50;2252.80;;;;;;4826058;29;20035;-66
2021/11/29 08:00:21;;;;;;;34.05;22.75;;;154.50;2252.80;;;;;;4826705;29;20062;-66
2021/11/29 08:02:50;;;;;;;29.33;19.67;;;154.50;2252.80;;;;;;4826598;29;20083;-66
2021/11/29 08:05:17;;;;;;;32.83;22.23;;;154.40;2252.80;;;;;;4826623;29;20027;-66
2021/11/29 08:07:43;;;;;;;35.30;24.02;;;154.50;2252.80;;;;;;4825801;29;20031;-67
2021/11/29 08:10:09;;;;;;;30.23;19.67;;;154.50;2252.80;;;;;;4826586;29;20037;-64
2021/11/29 08:12:35;;;;;;;30.20;20.70;;;154.40;2252.80;;;;;;4826945;29;20357;-66
2021/11/29 08:15:02;;;;;;;30.40;21.77;;;154.50;2252.80;;;;;;4826771;29;20030;-65
2021/11/29 08:17:28;;;;;;;27.42;20.88;;;154.50;2252.80;;;;;;4826718;29;20034;-66
2021/11/29 08:19:54;;;;;;;28.00;21.08;;;154.40;2252.80;;;;;;4826725;29;20034;-66
2021/11/29 08:22:20;;;;;;;33.67;23.00;;;154.40;2252.80;;;;;;4826438;29;20036;-66
2021/11/29 08:24:46;;;;;;;24.27;19.05;;;154.50;2252.80;;;;;;4826946;29;20487;-67
2021/11/29 08:27:12;;;;;;;31.88;22.23;;;154.20;2252.80;;;;;;4826617;29;20030;-66
2021/11/29 08:29:38;;;;;;;26.10;19.10;;;154.30;2252.80;;;;;;4825155;29;20035;-66
2021/11/29 08:32:04;;;;;;;26.90;18.63;;;154.30;2252.80;;;;;;4826051;29;20064;-66
2021/11/29 08:34:30;;;;;;;34.17;18.73;;;154.20;2252.80;;;;;;4826762;29;20034;-65
2021/11/29 08:36:56;;;;;;;20.77;17.00;;;154.30;2252.80;;;;;;4826416;29;20078;-64
2021/11/29 08:39:22;;;;;;;29.80;23.17;;;154.30;2252.80;;;;;;4826340;29;20065;-66
2021/11/29 08:41:48;;;;;;;22.35;18.38;;;154.20;2252.80;;;;;;4826156;29;20058;-66
2021/11/29 08:44:14;;;;;;;22.48;17.20;;;154.10;2252.80;;;;;;4826344;29;20108;-66
2021/11/29 08:46:47;;;;;;;21.65;15.20;;;154.20;2252.80;;;;;;4826083;29;20449;-66
2021/11/29 08:49:15;;;;;;;19.10;14.68;;;154.20;2252.80;;;;;;4825862;29;20107;-66
2021/11/29 08:51:41;;;;;;;17.10;13.23;;;154.20;2252.80;;;;;;4826269;29;20034;-66
2021/11/29 08:54:07;;;;;;;40.83;25.15;;;154.20;2252.80;;;;;;4826190;29;20476;-66
2021/11/29 08:56:33;;;;;;;34.65;20.48;;;154.20;2252.80;;;;;;4825791;29;20040;-66
2021/11/29 08:59:00;;;;;;;22.55;16.02;;;154.20;2252.80;;;;;;4826168;29;20030;-66
2021/11/29 09:01:26;;;;;;;32.53;19.45;;;154.30;2252.80;;;;;;4825833;29;20028;-66
2021/11/29 09:03:52;;;;;;;41.83;23.10;;;154.30;2252.80;;;;;;4826036;29;20031;-66
2021/11/29 09:06:18;;;;;;;23.15;16.88;;;154.30;2252.80;;;;;;4825812;29;20018;-66
2021/11/29 09:08:45;;;;;;;28.13;19.38;;;154.30;2252.80;;;;;;4808338;29;20038;-66
2021/11/29 09:11:13;;;;;;;35.88;24.30;;;154.40;2252.80;;;;;;4825738;29;20049;-66
2021/11/29 09:13:41;;;;;;;29.77;19.65;;;154.50;2252.80;;;;;;4825683;29;20026;-66
2021/11/29 09:16:08;;;;;;;30.70;19.10;;;154.50;2252.80;;;;;;4825620;29;20095;-66
2021/11/29 09:18:34;;;;;;;27.20;16.90;;;179.20;2252.80;;;;;;4825559;29;20022;-66
2021/11/29 09:21:01;;;;;;;25.75;18.98;;;154.50;2252.80;;;;;;4825804;29;20034;-66
2021/11/29 09:26:50;;;;;;;26.40;20.85;;;154.50;2252.80;;;;;;4825633;29;20033;-65
2021/11/29 09:29:17;;;;;;;24.98;18.75;;;154.50;2252.80;;;;;;4825472;29;20030;-66
2021/11/29 09:31:43;;;;;;;64.70;35.47;;;154.50;2252.80;;;;;;4825383;29;20476;-66
2021/11/29 09:34:09;;;;;;;22.55;17.05;;;154.50;2252.80;;;;;;4825392;29;20030;-66
2021/11/29 09:36:35;;;;;;;24.10;15.05;;;154.40;2252.80;;;;;;4825334;29;20038;-65
2021/11/29 09:39:03;;;;;;;20.17;15.65;;;154.20;2252.80;;;;;;4825591;29;20026;-65
2021/11/29 09:41:28;;;;;;;27.98;18.83;;;154.30;2252.80;;;;;;4825300;29;20134;-65
2021/11/29 09:43:55;;;;;;;23.77;16.70;;;154.40;2252.80;;;;;;4825556;29;20051;-65
2021/11/29 09:46:22;;;;;;;32.78;22.25;;;154.30;2252.80;;;;;;4825171;29;20022;-66
2021/11/29 09:48:48;;;;;;;35.83;24.67;;;154.40;2252.80;;;;;;4823781;29;20046;-66
2021/11/29 09:51:14;;;;;;;21.55;16.73;;;179.20;2252.80;;;;;;4825431;29;20377;-65
2021/11/29 09:53:40;;;;;;;19.58;15.05;;;154.40;2252.80;;;;;;4825064;29;20374;-66
2021/11/29 09:56:07;;;;;;;27.50;17.98;;;154.50;2252.80;;;;;;4825807;29;20114;-66
2021/11/29 09:58:33;;;;;;;24.73;18.50;;;154.50;2252.80;;;;;;4825036;29;20038;-66
2021/11/29 10:01:02;;;;;;;28.08;20.80;;;179.20;2252.80;;;;;;4808529;29;20494;-66
2021/11/29 10:03:28;;;;;;;35.97;25.67;;;179.20;2252.80;;;;;;4825205;29;20022;-65
2021/11/29 10:05:55;;;;;;;58.60;35.05;;;179.20;2252.80;;;;;;4824975;29;20049;-66
2021/11/29 10:08:30;;;;;;;55.72;35.40;;;179.30;2252.80;;;;;;4825188;29;20027;-66
2021/11/29 10:11:11;;;;;;;74.47;42.88;;;179.30;2252.80;;;;;;4824849;29;20054;-66
2021/11/29 10:13:53;;;;;;;29.38;18.35;;;179.30;2252.80;;;;;;4825121;29;20030;-69
2021/11/29 10:16:38;;;;;;;29.25;19.35;;;154.40;2252.80;;;;;;4825077;29;20038;-66
2021/11/29 10:19:08;;;;;;;29.48;18.92;;;154.50;2252.80;;;;;;4825025;29;20468;-66
2021/11/29 10:21:34;;;;;;;35.38;19.38;;;179.20;2252.80;;;;;;4824613;29;20030;-66
2021/11/29 10:24:01;;;;;;;24.48;17.85;;;179.20;2252.80;;;;;;4824950;29;20097;-65
2021/11/29 10:26:30;;;;;;;34.53;21.00;;;154.40;2252.80;;;;;;4825268;29;20038;-65
2021/11/29 10:29:17;;;;;;;29.65;20.80;;;154.40;2252.80;;;;;;4824695;29;20506;-66
2021/11/29 10:31:46;;;;;;;27.25;19.58;;;154.50;2252.80;;;;;;4808951;29;20385;-66
2021/11/29 10:34:20;;;;;;;34.13;26.25;;;179.20;2252.80;;;;;;4824580;29;20022;-66
2021/11/29 10:36:51;;;;;;;24.83;19.30;;;179.20;2252.80;;;;;;4824600;29;20092;-65
2021/11/29 10:39:26;;;;;;;32.35;23.00;;;179.50;2252.80;;;;;;4808052;29;20110;-65
2021/11/29 10:41:57;;;;;;;38.60;29.25;;;179.50;2252.80;;;;;;4824753;29;20053;-66
2021/11/29 10:44:32;;;;;;;35.25;26.10;;;180.00;2252.80;;;;;;4824761;29;20484;-66
2021/11/29 10:47:00;;;;;;;30.15;22.42;;;204.90;2252.80;;;;;;4824483;29;20114;-65
2021/11/29 10:49:30;;;;;;;35.15;23.27;;;205.70;2252.80;;;;;;4824356;29;20051;-66
2021/11/29 10:51:59;;;;;;;33.80;23.50;;;281.90;2099.20;;;;;;4824442;29;20397;-66
2021/11/29 10:54:27;;;;;;;46.83;27.55;;;;;;;;;;4824289;29;20057;-66
2021/11/29 10:56:56;;;;;;;32.03;20.77;;;;;;;;;;4824291;29;20045;-66
2021/11/29 10:59:24;;;;;;;24.95;17.98;;;;;;;;;;4824381;29;20027;-66
2021/11/29 11:01:59;;;;;;;32.60;19.67;;;281.70;1971.20;;;;;;4824316;29;20492;-66
2021/11/29 11:04:32;;;;;;;23.90;16.58;;;231.20;2099.20;;;;;;4824375;29;20038;-66
2021/11/29 11:07:01;;;;;;;28.60;17.77;;;205.60;2252.80;;;;;;4824871;29;20023;-65
2021/11/29 11:09:30;;;;;;;23.52;18.98;;;205.30;2252.80;;;;;;4824257;29;20546;-65
2021/11/29 11:11:59;;;;;;;27.58;19.42;;;204.80;2252.80;;;;;;4824181;29;20030;-65
2021/11/29 11:14:33;;;;;;;29.38;21.08;;;204.80;2252.80;;;;;;4824257;29;20061;-65
2021/11/29 11:17:04;;;;;;;40.80;26.10;;;204.80;2252.80;;;;;;4824333;29;20038;-65
2021/11/29 11:19:35;;;;;;;23.88;18.30;;;180.00;2252.80;;;;;;4824756;29;20054;-65
2021/11/29 11:22:15;;;;;;;27.83;19.55;;;180.10;2252.80;;;;;;4824658;29;20472;-66
2021/11/29 11:25:00;;;;;;;25.05;18.50;;;204.80;2252.80;;;;;;4807815;29;20027;-65
2021/11/29 11:27:36;;;;;;;26.77;18.27;;;204.80;2252.80;;;;;;4807771;29;20556;-65
2021/11/29 11:30:07;;;;;;;31.85;20.25;;;204.80;2252.80;;;;;;4824349;29;20069;-66
2021/11/29 11:32:39;;;;;;;53.60;26.58;;;204.80;2252.80;;;;;;4825393;29;20062;-65
2021/11/29 11:35:08;;;;;;;33.53;21.00;;;180.10;2252.80;;;;;;4827287;29;20476;-65
2021/11/29 11:37:45;;;;;;;30.05;19.77;;;179.80;2252.80;;;;;;4827125;29;20074;-66
2021/11/29 11:40:18;;;;;;;37.47;25.92;;;179.70;2252.80;;;;;;4827678;29;20034;-65
2021/11/29 11:42:45;;;;;;;30.10;20.60;;;179.80;2252.80;;;;;;4827420;29;20069;-65
2021/11/29 11:45:15;;;;;;;34.75;23.70;;;179.60;2252.80;;;;;;4827313;29;20105;-65
2021/11/29 11:47:44;;;;;;;23.75;17.25;;;179.60;2252.80;;;;;;4827323;29;20030;-65
2021/11/29 11:50:12;;;;;;;34.83;21.10;;;179.40;2252.80;;;;;;4826761;29;20047;-66
2021/11/29 11:52:38;;;;;;;26.55;17.50;;;179.30;2252.80;;;;;;4826940;29;20082;-66
2021/11/29 11:55:06;;;;;;;30.65;20.08;;;179.30;2252.80;;;;;;4826814;29;20111;-66
2021/11/29 11:57:33;;;;;;;58.80;28.60;;;179.30;2252.80;;;;;;4826675;29;20404;-69
2021/11/29 12:00:08;;;;;;;38.70;24.15;;;179.40;2252.80;;;;;;4826869;29;20034;-67
2021/11/29 12:02:44;;;;;;;41.08;22.85;;;179.40;2252.80;;;;;;4826860;29;20034;-66
2021/11/29 12:05:21;;;;;;;47.58;26.63;;;179.30;2252.80;;;;;;4826759;29;20034;-65
2021/11/29 12:07:47;;;;;;;56.90;30.83;;;179.30;2252.80;;;;;;4826710;29;20030;-66